Time;durP1;ratioP1;P1;durP2;ratioP2;P2;SDS_P1;SDS_P2;PMS_P1;PMS_P2;Temp;Humidity;BMP_temperature;BMP_pressure;BME280_temperature;BME280_humidity;BME280_pressure;Samples;Min_cycle;Max_cycle;Signal;HPM_P1;HPM_P2
2022/10/04 00:00:58;;;;;;;36.10;20.02;;;7.70;99.90;;;;;;5036452;28;20100;-72
2022/10/04 00:03:29;;;;;;;34.30;19.88;;;7.60;99.90;;;;;;5034106;28;20076;-72
2022/10/04 00:05:59;;;;;;;41.20;18.67;;;7.60;99.90;;;;;;5039884;28;20044;-72
2022/10/04 00:08:31;;;;;;;32.08;17.42;;;7.60;99.90;;;;;;5054790;28;20037;-72
2022/10/04 00:11:12;;;;;;;54.78;32.80;;;7.60;99.90;;;;;;5055954;28;20041;-71
2022/10/04 00:13:41;;;;;;;28.13;18.77;;;7.70;99.90;;;;;;5054535;28;20408;-72
2022/10/04 00:16:24;;;;;;;31.55;18.77;;;7.70;99.90;;;;;;5055530;28;20045;-71
2022/10/04 00:19:01;;;;;;;31.90;16.98;;;7.60;99.90;;;;;;5053710;28;20045;-72
2022/10/04 00:22:07;;;;;;;28.17;17.65;;;7.60;99.90;;;;;;5055651;28;20075;-72
2022/10/04 00:24:36;;;;;;;30.80;16.50;;;7.50;99.90;;;;;;5049436;28;20118;-72
2022/10/04 00:27:20;;;;;;;44.38;22.17;;;7.50;99.90;;;;;;5054661;28;20127;-72
2022/10/04 00:30:11;;;;;;;26.52;15.55;;;7.50;99.90;;;;;;5049193;28;20037;-72
2022/10/04 00:33:00;;;;;;;27.27;15.95;;;7.50;99.90;;;;;;5053079;28;20041;-72
2022/10/04 00:35:53;;;;;;;25.17;16.33;;;7.40;99.90;;;;;;5051323;28;20519;-72
2022/10/04 00:38:27;;;;;;;30.13;16.83;;;7.30;99.90;;;;;;5044440;28;20057;-71
2022/10/04 00:41:01;;;;;;;29.45;17.38;;;7.30;99.90;;;;;;5054205;28;20043;-72
2022/10/04 00:43:33;;;;;;;29.00;17.70;;;7.30;99.90;;;;;;5054495;28;20041;-72
2022/10/04 00:46:06;;;;;;;25.40;17.65;;;7.30;99.90;;;;;;5054349;28;20074;-71
2022/10/04 00:48:44;;;;;;;30.00;16.88;;;7.30;99.90;;;;;;5054270;28;20091;-71
2022/10/04 00:51:21;;;;;;;30.77;17.45;;;7.20;99.90;;;;;;5053288;28;20048;-72
2022/10/04 00:53:58;;;;;;;31.58;18.52;;;7.20;99.90;;;;;;5054536;28;20077;-71
2022/10/04 00:56:35;;;;;;;30.35;18.20;;;7.20;99.90;;;;;;5054122;28;20479;-71
2022/10/04 00:59:32;;;;;;;30.23;17.55;;;7.20;99.90;;;;;;5054682;28;20087;-72
2022/10/04 01:02:05;;;;;;;35.88;17.92;;;7.20;99.90;;;;;;5037062;28;20068;-72
2022/10/04 01:04:39;;;;;;;30.17;17.25;;;7.10;99.90;;;;;;5053355;28;20061;-72
2022/10/04 01:07:09;;;;;;;31.67;18.33;;;7.10;99.90;;;;;;5054602;28;20044;-71
2022/10/04 01:09:43;;;;;;;29.00;17.00;;;7.10;99.90;;;;;;5052769;28;20056;-72
2022/10/04 01:12:17;;;;;;;26.42;17.55;;;7.00;99.90;;;;;;5052830;28;20084;-73
2022/10/04 01:14:54;;;;;;;27.00;16.73;;;7.00;99.90;;;;;;5053784;28;20045;-71
2022/10/04 01:17:22;;;;;;;31.02;17.90;;;7.10;99.90;;;;;;5052838;28;20045;-71
2022/10/04 01:19:52;;;;;;;29.90;18.63;;;7.10;99.90;;;;;;5051857;28;20049;-72
2022/10/04 01:22:41;;;;;;;38.63;21.33;;;7.10;99.90;;;;;;5052125;28;20049;-72
2022/10/04 01:25:09;;;;;;;31.27;17.90;;;7.10;99.90;;;;;;5052623;28;20098;-72
2022/10/04 01:27:43;;;;;;;26.30;16.10;;;7.20;99.90;;;;;;5053307;28;20036;-72
2022/10/04 01:30:15;;;;;;;26.85;15.93;;;7.10;99.90;;;;;;5053484;28;20044;-71
2022/10/04 01:32:43;;;;;;;25.20;16.17;;;7.10;99.90;;;;;;5053127;28;20496;-72
2022/10/04 01:35:13;;;;;;;27.17;16.45;;;7.10;99.90;;;;;;5053421;28;20481;-72
2022/10/04 01:37:42;;;;;;;28.95;17.15;;;7.00;99.90;;;;;;5051744;28;20132;-72
2022/10/04 01:40:11;;;;;;;23.92;15.52;;;6.90;99.90;;;;;;5053446;28;20472;-71
2022/10/04 01:42:43;;;;;;;34.15;15.57;;;6.90;99.90;;;;;;5052122;28;20049;-71
2022/10/04 01:45:19;;;;;;;22.77;14.98;;;6.80;99.90;;;;;;5052382;28;20107;-72
2022/10/04 01:47:52;;;;;;;22.73;14.05;;;6.70;99.90;;;;;;5053808;28;20043;-71
2022/10/04 01:50:25;;;;;;;22.67;13.80;;;6.60;99.90;;;;;;5051892;28;20131;-72
2022/10/04 01:53:00;;;;;;;23.17;13.35;;;6.70;99.90;;;;;;5051873;28;20049;-72
2022/10/04 01:55:33;;;;;;;23.77;12.73;;;6.70;99.90;;;;;;5052722;28;20098;-71
2022/10/04 01:58:08;;;;;;;27.48;14.60;;;6.70;99.90;;;;;;5051696;28;20041;-71
2022/10/04 02:00:43;;;;;;;25.73;13.40;;;6.70;99.90;;;;;;5055062;28;20079;-71
2022/10/04 02:03:14;;;;;;;22.35;13.38;;;6.80;99.90;;;;;;5056835;28;20051;-72
2022/10/04 02:05:48;;;;;;;27.00;14.23;;;6.90;99.90;;;;;;5051947;28;20111;-72
2022/10/04 02:08:22;;;;;;;28.58;14.85;;;7.00;99.90;;;;;;5053031;28;20056;-72
2022/10/04 02:10:53;;;;;;;27.48;14.75;;;7.00;99.90;;;;;;5052339;28;20420;-72
2022/10/04 02:13:21;;;;;;;26.85;14.13;;;7.00;99.90;;;;;;5053423;28;20073;-71
2022/10/04 02:15:49;;;;;;;28.67;14.32;;;7.00;99.90;;;;;;5052800;28;20064;-71
2022/10/04 02:18:20;;;;;;;27.15;15.48;;;7.00;99.90;;;;;;5052919;28;20033;-71
2022/10/04 02:20:49;;;;;;;28.92;15.68;;;6.90;99.90;;;;;;5052805;28;20068;-72
2022/10/04 02:23:20;;;;;;;29.70;16.50;;;6.90;99.90;;;;;;5052742;28;20075;-72
2022/10/04 02:25:48;;;;;;;27.40;15.57;;;6.70;99.90;;;;;;5052758;28;20550;-72
2022/10/04 02:28:17;;;;;;;29.50;15.15;;;6.60;99.90;;;;;;5052643;28;20131;-72
2022/10/04 02:32:56;;;;;;;30.85;15.10;;;6.60;99.90;;;;;;5054459;28;20045;-72
2022/10/04 02:33:40;;;;;;;24.48;15.05;;;6.60;99.90;;;;;;5055847;28;20041;-72
2022/10/04 02:36:09;;;;;;;27.90;15.48;;;6.70;99.90;;;;;;5057169;28;20056;-71
2022/10/04 02:38:44;;;;;;;28.23;15.13;;;6.70;99.90;;;;;;5056973;28;20503;-71
2022/10/04 02:41:21;;;;;;;27.15;15.63;;;6.80;99.90;;;;;;5057426;28;20102;-72
2022/10/04 02:43:53;;;;;;;27.73;15.13;;;6.80;99.90;;;;;;5056330;28;20045;-71
2022/10/04 02:46:27;;;;;;;26.75;14.32;;;6.90;99.90;;;;;;5057697;28;20041;-72
2022/10/04 02:48:57;;;;;;;28.60;15.60;;;6.90;99.90;;;;;;5057950;28;20092;-72
2022/10/04 02:51:28;;;;;;;25.38;15.80;;;7.00;99.90;;;;;;5057699;28;20045;-71
2022/10/04 02:54:06;;;;;;;26.98;15.73;;;7.10;99.90;;;;;;5057117;28;20057;-72
2022/10/04 02:56:35;;;;;;;30.95;15.63;;;7.10;99.90;;;;;;5056467;28;20092;-71
2022/10/04 02:59:04;;;;;;;23.92;14.98;;;7.10;99.90;;;;;;5057016;28;20033;-73
2022/10/04 03:01:46;;;;;;;24.33;13.40;;;7.20;99.90;;;;;;5060149;28;20049;-71
2022/10/04 03:04:15;;;;;;;24.20;13.60;;;7.20;99.90;;;;;;5060226;28;20047;-71
2022/10/04 03:06:45;;;;;;;21.08;13.88;;;7.20;99.90;;;;;;5061153;28;20488;-72
2022/10/04 03:09:15;;;;;;;29.63;13.77;;;7.20;99.90;;;;;;5062505;28;20041;-71
2022/10/04 03:11:43;;;;;;;27.10;15.35;;;7.10;99.90;;;;;;5060758;28;20041;-71
2022/10/04 03:14:14;;;;;;;25.25;15.20;;;7.20;99.90;;;;;;5062867;28;20067;-72
2022/10/04 03:16:44;;;;;;;22.95;13.77;;;7.10;99.90;;;;;;5056801;28;20492;-71
2022/10/04 03:19:14;;;;;;;23.20;14.05;;;7.10;99.90;;;;;;5058065;28;20045;-71
2022/10/04 03:21:45;;;;;;;24.98;14.75;;;7.00;99.90;;;;;;5057138;28;20106;-70
2022/10/04 03:24:20;;;;;;;25.27;15.20;;;6.90;99.90;;;;;;5058709;28;20115;-72
2022/10/04 03:26:50;;;;;;;30.75;14.80;;;6.90;99.90;;;;;;5056397;28;20103;-70
2022/10/04 03:29:19;;;;;;;26.00;15.35;;;6.80;99.90;;;;;;5060633;28;20454;-70
2022/10/04 03:31:49;;;;;;;27.48;15.20;;;6.70;99.90;;;;;;5068348;28;20132;-72
2022/10/04 03:34:18;;;;;;;23.48;15.75;;;6.70;99.90;;;;;;5069543;28;20227;-71
2022/10/04 03:36:49;;;;;;;26.50;16.27;;;6.80;99.90;;;;;;5071495;28;20051;-72
2022/10/04 03:39:26;;;;;;;29.27;16.50;;;6.70;99.90;;;;;;5070701;28;20041;-71
2022/10/04 03:41:56;;;;;;;24.88;16.63;;;6.70;99.90;;;;;;5056055;28;20057;-72
2022/10/04 03:44:24;;;;;;;25.55;16.23;;;6.70;99.90;;;;;;5056382;28;20116;-71
2022/10/04 03:46:51;;;;;;;29.75;16.98;;;6.70;99.90;;;;;;5054649;28;20492;-71
2022/10/04 03:49:30;;;;;;;29.48;16.08;;;6.60;99.90;;;;;;5056218;28;20477;-71
2022/10/04 03:51:58;;;;;;;27.92;17.00;;;6.60;99.90;;;;;;5055938;28;20056;-72
2022/10/04 03:54:28;;;;;;;31.00;17.20;;;6.60;99.90;;;;;;5055093;28;20067;-71
2022/10/04 03:56:56;;;;;;;32.35;18.38;;;6.60;99.90;;;;;;5055193;28;20136;-72
2022/10/04 03:59:26;;;;;;;28.40;18.08;;;6.60;99.90;;;;;;5054447;28;20063;-70
2022/10/04 04:02:06;;;;;;;32.17;18.20;;;6.50;99.90;;;;;;5054604;28;20064;-71
2022/10/04 04:04:43;;;;;;;25.25;16.20;;;6.50;99.90;;;;;;5056324;28;20051;-70
2022/10/04 04:07:15;;;;;;;26.23;16.35;;;6.40;99.90;;;;;;5055161;28;20055;-71
2022/10/04 04:09:52;;;;;;;26.80;16.35;;;6.30;99.90;;;;;;5055019;28;20048;-71
2022/10/04 04:12:24;;;;;;;25.25;15.45;;;6.30;99.90;;;;;;5054062;28;20118;-74
2022/10/04 04:14:53;;;;;;;30.35;16.50;;;6.20;99.90;;;;;;5054417;28;20094;-74
2022/10/04 04:17:40;;;;;;;29.08;17.38;;;6.20;99.90;;;;;;5054813;28;20120;-73
2022/10/04 04:20:17;;;;;;;32.10;19.98;;;6.20;99.90;;;;;;5054591;28;20150;-74
2022/10/04 04:22:48;;;;;;;37.80;22.17;;;6.30;99.90;;;;;;5054776;28;20044;-74
2022/10/04 04:25:18;;;;;;;39.70;26.27;;;6.30;99.90;;;;;;5055108;28;20508;-73
2022/10/04 04:27:49;;;;;;;36.22;24.30;;;6.30;99.90;;;;;;5053188;28;20071;-73
2022/10/04 04:30:18;;;;;;;33.05;22.00;;;6.20;99.90;;;;;;5050334;28;20052;-73
2022/10/04 04:32:49;;;;;;;27.40;16.77;;;6.10;99.90;;;;;;5033486;28;20041;-74
2022/10/04 04:35:25;;;;;;;35.63;21.67;;;6.00;99.90;;;;;;5035289;28;20049;-74
2022/10/04 04:38:19;;;;;;;33.83;20.02;;;6.10;99.90;;;;;;5034870;28;20041;-74
2022/10/04 04:40:48;;;;;;;34.97;21.85;;;6.10;99.90;;;;;;5035169;28;20084;-73
2022/10/04 04:43:19;;;;;;;33.85;20.20;;;6.20;99.90;;;;;;5032842;28;20068;-74
2022/10/04 04:45:49;;;;;;;34.25;20.50;;;6.20;99.90;;;;;;5034749;28;20124;-73
2022/10/04 04:48:19;;;;;;;29.83;17.42;;;6.20;99.90;;;;;;5034879;28;20073;-74
2022/10/04 04:50:53;;;;;;;31.35;17.92;;;6.20;99.90;;;;;;5032969;28;20161;-74
2022/10/04 04:53:23;;;;;;;32.58;19.15;;;6.20;99.90;;;;;;5034361;28;20049;-74
2022/10/04 04:55:56;;;;;;;31.23;19.20;;;6.20;99.90;;;;;;5034528;28;20050;-73
2022/10/04 04:58:28;;;;;;;38.15;21.92;;;6.10;99.90;;;;;;5034461;28;20037;-74
2022/10/04 05:00:59;;;;;;;47.17;25.50;;;6.10;99.90;;;;;;5033297;28;20053;-74
2022/10/04 05:03:28;;;;;;;39.25;22.25;;;6.10;99.90;;;;;;5033849;28;20049;-73
2022/10/04 05:05:59;;;;;;;35.03;22.60;;;6.20;99.90;;;;;;5032758;28;20080;-74
2022/10/04 05:08:28;;;;;;;30.15;19.02;;;6.20;99.90;;;;;;5033795;28;20061;-73
2022/10/04 05:11:04;;;;;;;36.35;18.00;;;6.30;99.90;;;;;;5032663;28;20080;-74
2022/10/04 05:13:36;;;;;;;29.80;18.13;;;6.30;99.90;;;;;;5031969;28;20045;-74
2022/10/04 05:16:03;;;;;;;32.72;17.63;;;6.30;99.90;;;;;;5032820;28;20051;-73
2022/10/04 05:18:33;;;;;;;31.92;17.33;;;6.30;99.90;;;;;;5032556;28;20045;-74
2022/10/04 05:21:07;;;;;;;34.30;20.83;;;6.40;99.90;;;;;;5032922;28;20049;-74
2022/10/04 05:23:35;;;;;;;49.45;34.38;;;6.50;99.90;;;;;;5033279;28;20037;-74
2022/10/04 05:26:09;;;;;;;43.45;29.33;;;6.50;99.90;;;;;;5033796;28;20049;-74
2022/10/04 05:28:37;;;;;;;24.60;16.92;;;6.50;99.90;;;;;;5034937;28;20393;-74
2022/10/04 05:31:26;;;;;;;29.73;17.80;;;6.60;99.90;;;;;;5051897;28;20048;-74
2022/10/04 05:33:58;;;;;;;23.13;15.90;;;6.60;99.90;;;;;;5047800;28;20468;-74
2022/10/04 05:36:49;;;;;;;31.17;17.42;;;6.70;99.90;;;;;;5042214;28;20125;-73
2022/10/04 05:39:25;;;;;;;30.13;19.98;;;6.70;99.90;;;;;;5033936;28;20044;-74
2022/10/04 05:42:01;;;;;;;23.77;13.70;;;6.80;99.90;;;;;;5033235;28;20041;-74
2022/10/04 05:44:31;;;;;;;28.45;16.45;;;6.80;99.90;;;;;;5037414;28;20408;-73
2022/10/04 05:47:01;;;;;;;28.30;16.98;;;6.80;99.90;;;;;;5048996;28;20079;-73
2022/10/04 05:49:34;;;;;;;33.00;19.42;;;6.90;99.90;;;;;;5049806;28;20052;-75
2022/10/04 05:52:06;;;;;;;35.03;18.42;;;7.00;99.90;;;;;;5051636;28;20049;-73
2022/10/04 05:54:36;;;;;;;27.85;16.23;;;7.10;99.90;;;;;;5049236;28;20072;-74
2022/10/04 05:57:28;;;;;;;34.10;17.05;;;7.20;99.90;;;;;;5051329;28;20075;-74
2022/10/04 06:00:08;;;;;;;32.97;16.38;;;7.40;99.90;;;;;;5048035;28;20390;-73
2022/10/04 06:03:09;;;;;;;29.77;16.35;;;7.50;99.90;;;;;;5052505;28;20044;-73
2022/10/04 06:05:48;;;;;;;23.73;14.40;;;7.70;99.90;;;;;;5050572;28;20411;-73
2022/10/04 06:08:26;;;;;;;23.27;13.85;;;7.90;99.90;;;;;;5051338;28;20060;-74
2022/10/04 06:11:04;;;;;;;25.40;13.77;;;8.00;99.90;;;;;;5051350;28;20044;-74
2022/10/04 06:14:00;;;;;;;26.65;15.05;;;8.10;99.90;;;;;;5052619;28;20121;-73
2022/10/04 06:16:43;;;;;;;35.35;18.42;;;8.30;99.90;;;;;;5052739;28;20075;-73
2022/10/04 06:19:39;;;;;;;31.38;17.55;;;8.50;99.90;;;;;;5053151;28;20044;-74
2022/10/04 06:22:16;;;;;;;31.00;17.33;;;8.60;99.90;;;;;;5045904;28;20057;-74
2022/10/04 06:24:48;;;;;;;27.05;15.50;;;8.90;99.90;;;;;;5052308;28;20084;-74
2022/10/04 06:27:21;;;;;;;28.08;13.48;;;9.10;99.90;;;;;;5052857;28;20041;-74
2022/10/04 06:29:54;;;;;;;23.15;13.00;;;9.50;99.90;;;;;;5052463;28;20055;-75
2022/10/04 06:32:53;;;;;;;23.73;13.68;;;9.90;99.90;;;;;;5053282;28;20053;-75
2022/10/04 06:35:50;;;;;;;32.17;14.40;;;10.40;99.90;;;;;;5025696;28;20057;-75
2022/10/04 06:38:34;;;;;;;33.63;19.17;;;10.80;99.90;;;;;;5041641;28;20099;-75
2022/10/04 06:41:18;;;;;;;35.42;19.20;;;10.80;99.90;;;;;;5048775;28;20480;-75
2022/10/04 06:44:05;;;;;;;30.88;15.35;;;10.80;99.90;;;;;;5032515;28;20064;-75
2022/10/04 06:46:43;;;;;;;27.83;13.60;;;10.90;99.90;;;;;;5034126;28;20404;-75
2022/10/04 06:49:34;;;;;;;22.45;13.15;;;11.10;99.90;;;;;;5051766;28;20045;-75
2022/10/04 06:52:32;;;;;;;20.02;12.77;;;11.10;99.90;;;;;;5030544;28;20061;-75
2022/10/04 06:55:20;;;;;;;27.35;13.88;;;11.10;99.90;;;;;;5026271;28;20046;-75
2022/10/04 06:58:18;;;;;;;27.00;14.45;;;11.10;99.90;;;;;;5032372;28;20119;-75
2022/10/04 07:00:54;;;;;;;33.67;16.42;;;11.40;99.90;;;;;;5032641;28;20041;-76
2022/10/04 07:03:27;;;;;;;26.80;13.70;;;11.80;99.90;;;;;;5031126;28;20057;-75
2022/10/04 07:05:59;;;;;;;23.67;13.07;;;11.90;99.90;;;;;;5030997;28;20038;-76
2022/10/04 07:08:35;;;;;;;27.70;14.13;;;12.00;99.90;;;;;;5031348;28;20187;-75
2022/10/04 07:11:11;;;;;;;28.58;14.65;;;12.10;99.90;;;;;;5032378;28;20076;-75
2022/10/04 07:13:41;;;;;;;;;;;12.20;99.90;;;;;;5032834;28;20136;-75
2022/10/04 07:16:25;;;;;;;27.10;13.20;;;12.40;99.90;;;;;;5032802;28;19940;-76
2022/10/04 07:19:00;;;;;;;30.45;15.70;;;12.40;99.90;;;;;;5035945;28;20038;-75
2022/10/04 07:21:37;;;;;;;44.80;17.10;;;12.60;99.90;;;;;;5035819;28;20045;-75
2022/10/04 07:24:07;;;;;;;21.98;12.32;;;12.70;99.90;;;;;;5035636;28;20076;-75
2022/10/04 07:26:39;;;;;;;19.48;11.52;;;12.90;99.90;;;;;;5043210;28;20101;-75
2022/10/04 07:29:20;;;;;;;17.48;10.63;;;13.20;99.90;;;;;;5052581;28;20058;-74
2022/10/04 07:31:51;;;;;;;19.77;10.00;;;13.40;99.90;;;;;;5053583;28;20040;-74
2022/10/04 07:34:26;;;;;;;19.33;12.05;;;13.60;99.90;;;;;;5048821;28;20056;-75
2022/10/04 07:36:55;;;;;;;16.77;10.07;;;13.50;99.90;;;;;;5045010;28;20045;-74
2022/10/04 07:39:27;;;;;;;22.38;10.07;;;13.20;99.90;;;;;;5048908;28;20105;-74
2022/10/04 07:41:57;;;;;;;23.08;10.98;;;13.30;99.90;;;;;;5041451;28;20118;-75
2022/10/04 07:44:34;;;;;;;25.70;12.25;;;13.40;99.90;;;;;;5034183;28;20489;-75
2022/10/04 07:47:08;;;;;;;22.67;11.70;;;13.40;99.90;;;;;;5035455;28;20123;-75
2022/10/04 07:49:40;;;;;;;25.75;11.95;;;13.50;99.90;;;;;;5035437;28;20041;-75
2022/10/04 07:52:37;;;;;;;21.98;11.70;;;13.70;99.90;;;;;;5035197;28;20125;-75
2022/10/04 07:55:10;;;;;;;;;;;13.90;99.90;;;;;;5015942;28;20159;-74
2022/10/04 07:57:47;;;;;;;19.88;12.02;;;14.10;99.90;;;;;;5036225;28;19927;-75
2022/10/04 08:00:20;;;;;;;21.38;11.93;;;14.20;99.90;;;;;;5035697;28;20037;-74
2022/10/04 08:03:05;;;;;;;23.67;11.88;;;14.20;99.90;;;;;;5036207;28;20041;-75
2022/10/04 08:05:37;;;;;;;27.20;12.23;;;14.30;99.90;;;;;;5035634;28;20092;-75
2022/10/04 08:08:37;;;;;;;22.35;11.90;;;14.50;99.90;;;;;;5035085;28;20045;-76
2022/10/04 08:11:30;;;;;;;22.00;12.07;;;14.50;99.90;;;;;;5037030;28;20078;-75
2022/10/04 08:14:04;;;;;;;23.52;11.27;;;14.70;99.90;;;;;;5041601;28;20041;-74
2022/10/04 08:16:37;;;;;;;19.45;11.13;;;14.90;99.90;;;;;;5047893;28;20049;-74
2022/10/04 08:19:22;;;;;;;22.33;11.23;;;15.10;99.90;;;;;;5040308;28;20045;-74
2022/10/04 08:22:00;;;;;;;19.60;11.47;;;14.90;99.90;;;;;;5035808;28;20053;-75
2022/10/04 08:24:35;;;;;;;27.30;11.65;;;14.80;99.90;;;;;;5034969;28;20049;-74
2022/10/04 08:27:29;;;;;;;17.13;11.27;;;15.00;99.90;;;;;;5033743;28;20057;-75
2022/10/04 08:30:05;;;;;;;23.13;11.15;;;15.20;99.90;;;;;;5035357;28;20045;-75
2022/10/04 08:32:49;;;;;;;25.95;12.00;;;15.50;99.90;;;;;;5033764;28;20068;-75
2022/10/04 08:35:32;;;;;;;18.38;10.35;;;15.70;99.90;;;;;;5035214;28;20049;-75
2022/10/04 08:38:37;;;;;;;18.95;10.27;;;16.00;99.90;;;;;;5034851;28;20527;-75
2022/10/04 08:41:46;;;;;;;20.02;10.73;;;16.20;99.90;;;;;;5033335;28;20440;-74
2022/10/04 08:45:06;;;;;;;21.27;11.45;;;16.00;99.90;;;;;;5014629;28;20115;-74
2022/10/04 08:47:57;;;;;;;23.08;12.75;;;15.90;99.90;;;;;;4989775;28;20078;-75
2022/10/04 08:50:59;;;;;;;25.25;12.15;;;15.60;99.90;;;;;;5025891;28;20049;-74
2022/10/04 08:54:05;;;;;;;22.35;12.40;;;15.50;99.90;;;;;;5034788;28;20046;-75
2022/10/04 08:56:57;;;;;;;25.50;12.02;;;15.40;99.90;;;;;;5015146;28;20428;-75
2022/10/04 08:59:53;;;;;;;26.45;11.60;;;15.50;99.90;;;;;;5034316;28;20112;-74
2022/10/04 09:02:53;;;;;;;27.20;12.50;;;15.70;99.90;;;;;;5033371;28;20069;-75
2022/10/04 09:05:50;;;;;;;23.58;12.57;;;16.00;99.90;;;;;;5034178;28;20452;-76
2022/10/04 09:08:54;;;;;;;23.90;12.65;;;16.50;99.90;;;;;;5034364;28;20045;-75
2022/10/04 09:11:49;;;;;;;28.25;14.43;;;16.70;99.90;;;;;;5033708;28;20049;-75
2022/10/04 09:14:37;;;;;;;32.78;14.15;;;16.90;99.90;;;;;;5032840;28;20052;-76
2022/10/04 09:17:20;;;;;;;29.35;15.23;;;17.20;99.90;;;;;;5033656;28;20071;-76
2022/10/04 09:19:55;;;;;;;26.77;14.07;;;17.40;99.90;;;;;;5033875;28;20095;-75
2022/10/04 09:22:45;;;;;;;29.02;15.10;;;17.50;99.90;;;;;;5034171;28;20121;-76
2022/10/04 09:25:48;;;;;;;24.77;13.07;;;17.60;99.90;;;;;;5033954;28;20058;-76
2022/10/04 09:28:37;;;;;;;21.73;12.30;;;17.50;99.90;;;;;;5032469;28;20056;-75
2022/10/04 09:31:39;;;;;;;17.67;9.23;;;17.60;99.90;;;;;;5033415;28;20053;-76
2022/10/04 09:34:27;;;;;;;15.45;8.57;;;17.60;99.90;;;;;;5033710;28;20064;-75
2022/10/04 09:37:19;;;;;;;12.52;6.88;;;17.50;99.90;;;;;;5033197;28;20413;-76
2022/10/04 09:40:22;;;;;;;23.80;11.85;;;17.30;99.90;;;;;;5031649;28;20053;-75
2022/10/04 09:43:18;;;;;;;15.20;8.25;;;17.30;99.90;;;;;;5033320;28;20041;-76
2022/10/04 09:46:10;;;;;;;13.98;7.20;;;17.60;99.90;;;;;;5031963;28;20058;-75
2022/10/04 09:48:42;;;;;;;10.18;4.40;;;17.70;99.90;;;;;;5033218;28;20044;-75
2022/10/04 09:51:33;;;;;;;8.57;3.60;;;18.00;99.90;;;;;;5031803;28;20048;-75
2022/10/04 09:54:36;;;;;;;8.43;4.57;;;18.00;99.90;;;;;;5012182;28;20069;-76
2022/10/04 09:57:18;;;;;;;8.30;3.70;;;17.70;99.90;;;;;;5032996;28;20111;-75
2022/10/04 10:00:25;;;;;;;7.63;3.20;;;17.90;99.90;;;;;;5032325;28;20123;-76
2022/10/04 10:03:37;;;;;;;9.60;4.18;;;17.90;99.90;;;;;;5024435;28;20051;-75
2022/10/04 10:06:52;;;;;;;8.07;3.63;;;18.10;99.30;;;;;;5012679;28;20517;-75
2022/10/04 10:13:38;;;;;;;14.10;6.57;;;18.30;98.80;;;;;;4975372;28;20050;-77
2022/10/04 10:15:39;;;;;;;6.70;3.22;;;18.20;98.10;;;;;;5034008;28;20041;-75
2022/10/04 10:18:15;;;;;;;8.55;4.40;;;18.10;97.60;;;;;;5038165;28;20032;-74
2022/10/04 10:21:03;;;;;;;5.10;2.38;;;17.80;97.80;;;;;;5047924;28;20439;-73
2022/10/04 10:23:55;;;;;;;6.80;2.92;;;17.60;97.70;;;;;;5050596;28;20045;-74
2022/10/04 10:26:49;;;;;;;8.20;3.92;;;17.60;97.50;;;;;;5052487;28;20453;-74
2022/10/04 10:29:49;;;;;;;5.72;3.25;;;17.50;97.20;;;;;;5044354;28;20048;-74
2022/10/04 10:32:36;;;;;;;7.25;3.30;;;17.50;97.40;;;;;;5052287;28;20049;-74
2022/10/04 10:35:24;;;;;;;10.32;4.53;;;17.60;97.60;;;;;;5053062;28;20041;-75
2022/10/04 10:38:16;;;;;;;13.35;5.93;;;17.80;97.50;;;;;;5052375;28;20049;-75
2022/10/04 10:41:03;;;;;;;9.02;4.80;;;17.80;97.50;;;;;;5053236;28;20114;-75
2022/10/04 10:44:07;;;;;;;12.48;4.20;;;17.80;97.70;;;;;;5052810;28;20562;-75
2022/10/04 10:46:57;;;;;;;12.77;6.25;;;17.70;99.50;;;;;;5047504;28;20057;-75
2022/10/04 10:49:47;;;;;;;11.55;4.13;;;17.70;99.90;;;;;;5052589;28;20072;-74
2022/10/04 10:52:54;;;;;;;9.98;5.20;;;17.80;99.90;;;;;;5057077;28;20049;-74
2022/10/04 10:56:07;;;;;;;15.88;8.23;;;18.00;99.90;;;;;;5045067;28;20049;-74
2022/10/04 10:58:58;;;;;;;11.98;7.05;;;18.10;99.90;;;;;;5040491;28;20084;-75
2022/10/04 11:01:59;;;;;;;15.55;8.68;;;18.10;99.90;;;;;;5038685;28;20472;-75
2022/10/04 11:04:53;;;;;;;13.05;7.15;;;18.30;99.90;;;;;;5054942;28;20047;-76
2022/10/04 11:07:53;;;;;;;14.95;8.77;;;17.90;99.90;;;;;;5054882;28;20119;-76
2022/10/04 11:11:00;;;;;;;13.05;7.20;;;17.70;99.90;;;;;;5030494;28;20068;-75
2022/10/04 11:13:56;;;;;;;17.27;11.32;;;17.90;99.90;;;;;;5055016;28;20108;-75
2022/10/04 11:17:13;;;;;;;15.90;8.80;;;17.80;99.90;;;;;;5048449;28;21183;-75
2022/10/04 11:20:14;;;;;;;13.82;8.77;;;17.70;99.90;;;;;;5049519;28;20045;-76
2022/10/04 11:23:20;;;;;;;25.63;15.65;;;17.70;99.90;;;;;;5055639;28;20061;-76
2022/10/04 11:26:30;;;;;;;16.97;8.83;;;17.70;99.90;;;;;;5036609;28;20045;-75
2022/10/04 11:29:11;;;;;;;16.00;9.35;;;17.80;99.90;;;;;;5023491;28;20057;-74
2022/10/04 11:32:00;;;;;;;18.95;9.60;;;17.30;99.90;;;;;;5055842;28;20041;-74
2022/10/04 11:35:00;;;;;;;16.38;8.40;;;17.30;99.90;;;;;;5054552;28;20041;-75
2022/10/04 11:37:52;;;;;;;23.33;11.38;;;17.40;99.90;;;;;;5056078;28;20087;-75
2022/10/04 11:40:49;;;;;;;17.05;8.48;;;17.60;99.90;;;;;;5037325;28;20038;-75
2022/10/04 11:43:23;;;;;;;;;;;17.80;99.90;;;;;;5042241;28;20424;-75
2022/10/04 11:46:08;;;;;;;12.45;6.15;;;17.80;99.90;;;;;;5056746;28;19932;-75
2022/10/04 11:48:52;;;;;;;11.70;6.57;;;17.80;99.90;;;;;;5055385;28;20067;-75
2022/10/04 11:51:57;;;;;;;12.02;6.85;;;17.80;99.90;;;;;;5056220;28;20063;-75
2022/10/04 11:54:53;;;;;;;13.32;5.88;;;17.80;99.90;;;;;;5038039;28;20572;-75
2022/10/04 11:57:31;;;;;;;15.10;6.37;;;18.20;99.90;;;;;;5036831;28;20108;-74
2022/10/04 12:00:11;;;;;;;8.23;4.70;;;18.10;99.90;;;;;;5050150;28;20318;-75
2022/10/04 12:03:08;;;;;;;10.98;5.80;;;18.10;99.90;;;;;;5046969;28;20051;-75
2022/10/04 12:06:02;;;;;;;11.60;5.55;;;18.30;99.90;;;;;;5047637;28;20033;-75
2022/10/04 12:08:48;;;;;;;8.88;5.00;;;18.20;99.90;;;;;;5055521;28;20067;-75
2022/10/04 12:15:04;;;;;;;15.25;6.65;;;18.20;99.90;;;;;;4997792;28;20065;-75
2022/10/04 12:18:00;;;;;;;14.50;5.47;;;18.50;99.90;;;;;;5040093;28;20053;-75
2022/10/04 12:21:05;;;;;;;9.80;4.82;;;18.50;99.90;;;;;;5053437;28;20041;-75
2022/10/04 12:24:03;;;;;;;14.80;6.07;;;18.60;99.80;;;;;;5016429;28;20104;-75
2022/10/04 12:26:51;;;;;;;12.25;5.72;;;18.70;99.90;;;;;;5054758;28;20044;-76
2022/10/04 12:30:04;;;;;;;12.95;5.82;;;18.80;99.90;;;;;;5043838;28;20064;-75
2022/10/04 12:32:40;;;;;;;13.90;7.07;;;18.80;99.90;;;;;;5053330;28;20045;-75
2022/10/04 12:35:21;;;;;;;12.80;5.20;;;18.80;99.60;;;;;;5054384;28;20533;-75
2022/10/04 12:38:08;;;;;;;10.18;4.05;;;18.70;98.30;;;;;;5055024;28;20503;-74
2022/10/04 12:40:44;;;;;;;13.88;5.15;;;18.80;96.80;;;;;;5054462;28;20047;-75
2022/10/04 12:43:20;;;;;;;13.70;6.13;;;19.20;96.10;;;;;;5054181;28;20146;-74
2022/10/04 12:46:04;;;;;;;15.05;6.82;;;19.30;95.80;;;;;;5052941;28;20036;-75
2022/10/04 12:48:43;;;;;;;6.05;3.10;;;19.40;94.90;;;;;;5045845;28;20381;-74
2022/10/04 12:51:26;;;;;;;10.20;4.13;;;19.40;92.00;;;;;;5053460;28;20510;-75
2022/10/04 12:54:00;;;;;;;12.65;6.28;;;19.40;91.80;;;;;;5045842;28;20045;-75
2022/10/04 12:56:47;;;;;;;15.82;6.78;;;19.40;92.00;;;;;;5050670;28;20049;-75
2022/10/04 12:59:39;;;;;;;11.35;5.25;;;19.30;92.50;;;;;;5052412;28;20037;-75
2022/10/04 13:02:26;;;;;;;11.52;4.97;;;19.30;92.70;;;;;;5036168;28;20041;-76
2022/10/04 13:04:54;;;;;;;;;;;19.40;92.20;;;;;;5034637;28;20045;-77
2022/10/04 13:07:44;;;;;;;14.15;5.40;;;19.60;91.60;;;;;;5034306;28;19925;-75
2022/10/04 13:10:29;;;;;;;7.28;3.08;;;19.60;90.80;;;;;;5034493;28;20064;-74
2022/10/04 13:13:29;;;;;;;9.30;4.25;;;19.60;89.70;;;;;;5046617;28;20037;-75
2022/10/04 13:16:07;;;;;;;8.80;5.35;;;19.30;88.50;;;;;;5000716;28;20425;-75
2022/10/04 13:18:42;;;;;;;6.25;2.17;;;19.20;88.00;;;;;;5048067;28;20048;-75
2022/10/04 13:21:14;;;;;;;18.67;6.28;;;19.20;86.20;;;;;;5053585;28;20037;-74
2022/10/04 13:24:02;;;;;;;37.35;16.88;;;19.30;86.30;;;;;;5052880;28;20052;-74
2022/10/04 13:26:37;;;;;;;32.10;11.23;;;19.40;87.10;;;;;;5053640;28;20044;-74
2022/10/04 13:29:20;;;;;;;6.50;2.80;;;19.40;86.60;;;;;;5052503;28;20052;-75
2022/10/04 13:31:53;;;;;;;7.18;2.70;;;19.30;85.40;;;;;;5053376;28;20044;-76
2022/10/04 13:34:31;;;;;;;5.50;3.58;;;19.30;86.00;;;;;;5053495;28;20045;-74
2022/10/04 13:37:22;;;;;;;11.05;6.00;;;19.10;87.00;;;;;;5052101;28;20516;-75
2022/10/04 13:40:20;;;;;;;7.43;2.70;;;19.10;87.70;;;;;;5053497;28;20099;-74
2022/10/04 13:43:05;;;;;;;6.32;2.55;;;19.20;86.00;;;;;;5052588;28;20149;-75
2022/10/04 13:45:49;;;;;;;11.30;4.00;;;19.20;86.60;;;;;;5051996;28;20554;-75
2022/10/04 13:48:33;;;;;;;8.90;3.47;;;19.30;86.70;;;;;;5052612;28;20049;-73
2022/10/04 13:51:19;;;;;;;8.77;3.20;;;19.30;86.70;;;;;;5048853;28;20032;-74
2022/10/04 13:56:56;;;;;;;10.32;5.78;;;19.20;85.40;;;;;;5052266;28;20061;-75